sensor_id;sensor_type;location;lat;lon;timestamp;P1;durP1;ratioP1;P2;durP2;ratioP2
18822;SDS011;9540;51.550;7.980;2023-04-24T00:00:53;1.92;;;0.93;;
18822;SDS011;9540;51.550;7.980;2023-04-24T00:03:21;1.13;;;0.90;;
18822;SDS011;9540;51.550;7.980;2023-04-24T00:05:49;2.40;;;0.82;;
18822;SDS011;9540;51.550;7.980;2023-04-24T00:08:16;0.90;;;0.90;;
18822;SDS011;9540;51.550;7.980;2023-04-24T00:10:43;1.25;;;0.90;;
18822;SDS011;9540;51.550;7.980;2023-04-24T00:13:11;1.65;;;0.77;;
18822;SDS011;9540;51.550;7.980;2023-04-24T00:15:39;0.80;;;0.80;;
18822;SDS011;9540;51.550;7.980;2023-04-24T00:18:07;1.25;;;0.80;;
18822;SDS011;9540;51.550;7.980;2023-04-24T00:20:34;1.00;;;0.90;;
18822;SDS011;9540;51.550;7.980;2023-04-24T00:23:01;0.80;;;0.80;;
18822;SDS011;9540;51.550;7.980;2023-04-24T00:25:28;0.80;;;0.73;;
18822;SDS011;9540;51.550;7.980;2023-04-24T00:27:55;1.08;;;1.08;;
18822;SDS011;9540;51.550;7.980;2023-04-24T00:30:22;1.25;;;1.02;;
18822;SDS011;9540;51.550;7.980;2023-04-24T00:32:51;1.75;;;1.00;;
18822;SDS011;9540;51.550;7.980;2023-04-24T00:35:18;1.30;;;1.10;;
18822;SDS011;9540;51.550;7.980;2023-04-24T00:37:46;0.93;;;0.93;;
18822;SDS011;9540;51.550;7.980;2023-04-24T00:40:16;2.35;;;1.05;;
18822;SDS011;9540;51.550;7.980;2023-04-24T00:42:46;0.90;;;0.90;;
18822;SDS011;9540;51.550;7.980;2023-04-24T00:45:13;0.95;;;0.88;;
18822;SDS011;9540;51.550;7.980;2023-04-24T00:47:40;0.80;;;0.80;;
18822;SDS011;9540;51.550;7.980;2023-04-24T00:50:10;1.00;;;0.90;;
18822;SDS011;9540;51.550;7.980;2023-04-24T00:52:38;1.20;;;1.10;;
18822;SDS011;9540;51.550;7.980;2023-04-24T00:55:06;1.30;;;1.20;;
18822;SDS011;9540;51.550;7.980;2023-04-24T00:57:36;0.90;;;0.90;;
18822;SDS011;9540;51.550;7.980;2023-04-24T01:00:04;1.08;;;1.08;;
18822;SDS011;9540;51.550;7.980;2023-04-24T01:02:35;1.02;;;1.02;;
18822;SDS011;9540;51.550;7.980;2023-04-24T01:05:05;1.02;;;1.02;;
18822;SDS011;9540;51.550;7.980;2023-04-24T01:07:34;0.82;;;0.82;;
18822;SDS011;9540;51.550;7.980;2023-04-24T01:10:03;1.20;;;1.10;;
18822;SDS011;9540;51.550;7.980;2023-04-24T01:12:30;1.25;;;1.10;;
18822;SDS011;9540;51.550;7.980;2023-04-24T01:14:58;1.00;;;1.00;;
18822;SDS011;9540;51.550;7.980;2023-04-24T01:17:25;2.20;;;1.00;;
18822;SDS011;9540;51.550;7.980;2023-04-24T01:19:53;4.93;;;1.15;;
18822;SDS011;9540;51.550;7.980;2023-04-24T01:22:23;0.80;;;0.80;;
18822;SDS011;9540;51.550;7.980;2023-04-24T01:24:50;0.90;;;0.90;;
18822;SDS011;9540;51.550;7.980;2023-04-24T01:27:18;1.08;;;1.08;;
18822;SDS011;9540;51.550;7.980;2023-04-24T01:29:45;1.30;;;1.30;;
18822;SDS011;9540;51.550;7.980;2023-04-24T01:32:14;1.20;;;1.20;;
18822;SDS011;9540;51.550;7.980;2023-04-24T01:34:42;2.22;;;1.48;;
18822;SDS011;9540;51.550;7.980;2023-04-24T01:37:10;0.90;;;0.90;;
18822;SDS011;9540;51.550;7.980;2023-04-24T01:39:38;1.75;;;0.90;;
18822;SDS011;9540;51.550;7.980;2023-04-24T01:42:05;1.50;;;0.90;;
18822;SDS011;9540;51.550;7.980;2023-04-24T01:44:33;1.10;;;1.00;;
18822;SDS011;9540;51.550;7.980;2023-04-24T01:47:01;3.63;;;1.08;;
18822;SDS011;9540;51.550;7.980;2023-04-24T01:49:28;1.00;;;1.00;;
18822;SDS011;9540;51.550;7.980;2023-04-24T01:51:56;1.20;;;0.98;;
18822;SDS011;9540;51.550;7.980;2023-04-24T01:54:23;0.98;;;0.98;;
18822;SDS011;9540;51.550;7.980;2023-04-24T01:56:51;1.08;;;1.08;;
18822;SDS011;9540;51.550;7.980;2023-04-24T01:59:18;0.82;;;0.82;;
18822;SDS011;9540;51.550;7.980;2023-04-24T02:01:47;1.10;;;1.10;;
18822;SDS011;9540;51.550;7.980;2023-04-24T02:04:15;1.30;;;1.20;;
18822;SDS011;9540;51.550;7.980;2023-04-24T02:06:42;1.42;;;1.33;;
18822;SDS011;9540;51.550;7.980;2023-04-24T02:09:09;1.83;;;1.25;;
18822;SDS011;9540;51.550;7.980;2023-04-24T02:11:36;1.50;;;1.40;;
18822;SDS011;9540;51.550;7.980;2023-04-24T02:14:07;1.60;;;1.27;;
18822;SDS011;9540;51.550;7.980;2023-04-24T02:16:34;1.60;;;1.50;;
18822;SDS011;9540;51.550;7.980;2023-04-24T02:19:02;1.65;;;1.55;;
18822;SDS011;9540;51.550;7.980;2023-04-24T02:21:29;1.98;;;1.77;;
18822;SDS011;9540;51.550;7.980;2023-04-24T02:23:56;2.20;;;2.00;;
18822;SDS011;9540;51.550;7.980;2023-04-24T02:26:24;3.22;;;1.60;;
18822;SDS011;9540;51.550;7.980;2023-04-24T02:28:51;2.08;;;1.98;;
18822;SDS011;9540;51.550;7.980;2023-04-24T02:31:19;2.08;;;1.95;;
18822;SDS011;9540;51.550;7.980;2023-04-24T02:33:47;1.83;;;1.70;;
18822;SDS011;9540;51.550;7.980;2023-04-24T02:36:14;2.05;;;1.95;;
18822;SDS011;9540;51.550;7.980;2023-04-24T02:38:41;2.13;;;1.98;;
18822;SDS011;9540;51.550;7.980;2023-04-24T02:41:08;2.15;;;2.05;;
18822;SDS011;9540;51.550;7.980;2023-04-24T02:43:35;2.47;;;2.28;;
18822;SDS011;9540;51.550;7.980;2023-04-24T02:46:02;2.85;;;2.13;;
18822;SDS011;9540;51.550;7.980;2023-04-24T02:48:31;2.60;;;2.10;;
18822;SDS011;9540;51.550;7.980;2023-04-24T02:50:58;2.35;;;2.20;;
18822;SDS011;9540;51.550;7.980;2023-04-24T02:53:25;2.50;;;2.30;;
18822;SDS011;9540;51.550;7.980;2023-04-24T02:55:52;4.38;;;2.20;;
18822;SDS011;9540;51.550;7.980;2023-04-24T02:58:19;2.65;;;1.88;;
18822;SDS011;9540;51.550;7.980;2023-04-24T03:00:46;4.10;;;2.20;;
18822;SDS011;9540;51.550;7.980;2023-04-24T03:03:14;2.45;;;2.13;;
18822;SDS011;9540;51.550;7.980;2023-04-24T03:05:42;3.60;;;2.53;;
18822;SDS011;9540;51.550;7.980;2023-04-24T03:08:10;3.80;;;2.92;;
18822;SDS011;9540;51.550;7.980;2023-04-24T03:10:37;3.60;;;3.10;;
18822;SDS011;9540;51.550;7.980;2023-04-24T03:13:07;2.90;;;2.67;;
18822;SDS011;9540;51.550;7.980;2023-04-24T03:15:34;3.35;;;2.83;;
18822;SDS011;9540;51.550;7.980;2023-04-24T03:18:01;2.47;;;2.28;;
18822;SDS011;9540;51.550;7.980;2023-04-24T03:20:28;2.35;;;2.25;;
18822;SDS011;9540;51.550;7.980;2023-04-24T03:22:56;2.70;;;2.50;;
18822;SDS011;9540;51.550;7.980;2023-04-24T03:25:23;2.70;;;2.50;;
18822;SDS011;9540;51.550;7.980;2023-04-24T03:27:51;6.07;;;2.65;;
18822;SDS011;9540;51.550;7.980;2023-04-24T03:30:19;2.90;;;2.70;;
18822;SDS011;9540;51.550;7.980;2023-04-24T03:32:46;3.03;;;2.72;;
18822;SDS011;9540;51.550;7.980;2023-04-24T03:35:14;3.75;;;2.38;;
18822;SDS011;9540;51.550;7.980;2023-04-24T03:37:41;2.92;;;2.72;;
18822;SDS011;9540;51.550;7.980;2023-04-24T03:40:09;8.27;;;4.05;;
18822;SDS011;9540;51.550;7.980;2023-04-24T03:42:37;5.13;;;3.17;;
18822;SDS011;9540;51.550;7.980;2023-04-24T03:45:04;4.22;;;3.28;;
18822;SDS011;9540;51.550;7.980;2023-04-24T03:47:32;6.72;;;3.88;;
18822;SDS011;9540;51.550;7.980;2023-04-24T03:49:59;4.03;;;3.45;;
18822;SDS011;9540;51.550;7.980;2023-04-24T03:52:27;5.45;;;4.05;;
18822;SDS011;9540;51.550;7.980;2023-04-24T03:54:54;5.63;;;3.95;;
18822;SDS011;9540;51.550;7.980;2023-04-24T03:57:23;8.40;;;5.25;;
18822;SDS011;9540;51.550;7.980;2023-04-24T03:59:50;7.60;;;4.88;;
18822;SDS011;9540;51.550;7.980;2023-04-24T04:02:18;11.77;;;5.80;;
18822;SDS011;9540;51.550;7.980;2023-04-24T04:04:45;7.43;;;5.40;;
18822;SDS011;9540;51.550;7.980;2023-04-24T04:07:15;7.90;;;6.20;;
18822;SDS011;9540;51.550;7.980;2023-04-24T04:09:43;7.72;;;6.38;;
18822;SDS011;9540;51.550;7.980;2023-04-24T04:12:10;11.32;;;7.20;;
18822;SDS011;9540;51.550;7.980;2023-04-24T04:14:39;10.50;;;8.55;;
18822;SDS011;9540;51.550;7.980;2023-04-24T04:17:06;12.23;;;9.00;;
18822;SDS011;9540;51.550;7.980;2023-04-24T04:19:33;12.48;;;9.38;;
18822;SDS011;9540;51.550;7.980;2023-04-24T04:22:01;12.82;;;9.35;;
18822;SDS011;9540;51.550;7.980;2023-04-24T04:24:28;14.15;;;9.57;;
18822;SDS011;9540;51.550;7.980;2023-04-24T04:26:55;15.43;;;10.70;;
18822;SDS011;9540;51.550;7.980;2023-04-24T04:29:23;19.33;;;9.77;;
18822;SDS011;9540;51.550;7.980;2023-04-24T04:31:52;13.68;;;10.80;;
18822;SDS011;9540;51.550;7.980;2023-04-24T04:34:20;15.13;;;11.10;;
18822;SDS011;9540;51.550;7.980;2023-04-24T04:36:47;18.33;;;11.25;;
18822;SDS011;9540;51.550;7.980;2023-04-24T04:39:15;16.50;;;11.15;;
18822;SDS011;9540;51.550;7.980;2023-04-24T04:41:43;17.55;;;12.27;;
18822;SDS011;9540;51.550;7.980;2023-04-24T04:44:11;18.33;;;11.38;;
18822;SDS011;9540;51.550;7.980;2023-04-24T04:46:39;20.02;;;11.70;;
18822;SDS011;9540;51.550;7.980;2023-04-24T04:49:08;16.90;;;12.38;;
18822;SDS011;9540;51.550;7.980;2023-04-24T04:51:36;16.83;;;11.68;;
18822;SDS011;9540;51.550;7.980;2023-04-24T04:54:03;18.70;;;11.55;;
18822;SDS011;9540;51.550;7.980;2023-04-24T04:56:30;20.33;;;12.25;;
18822;SDS011;9540;51.550;7.980;2023-04-24T04:58:57;15.73;;;12.40;;
18822;SDS011;9540;51.550;7.980;2023-04-24T05:01:24;18.83;;;12.05;;
18822;SDS011;9540;51.550;7.980;2023-04-24T05:03:52;18.98;;;12.00;;
18822;SDS011;9540;51.550;7.980;2023-04-24T05:06:21;16.38;;;10.93;;
18822;SDS011;9540;51.550;7.980;2023-04-24T05:08:48;19.33;;;12.15;;
18822;SDS011;9540;51.550;7.980;2023-04-24T05:11:16;18.75;;;11.88;;
18822;SDS011;9540;51.550;7.980;2023-04-24T05:13:43;17.35;;;10.65;;
18822;SDS011;9540;51.550;7.980;2023-04-24T05:16:10;19.05;;;10.60;;
18822;SDS011;9540;51.550;7.980;2023-04-24T05:18:37;13.57;;;10.25;;
18822;SDS011;9540;51.550;7.980;2023-04-24T05:21:04;12.57;;;9.57;;
18822;SDS011;9540;51.550;7.980;2023-04-24T05:23:33;13.75;;;9.35;;
18822;SDS011;9540;51.550;7.980;2023-04-24T05:26:00;11.82;;;9.13;;
18822;SDS011;9540;51.550;7.980;2023-04-24T05:28:27;15.73;;;10.35;;
18822;SDS011;9540;51.550;7.980;2023-04-24T05:30:54;17.33;;;8.35;;
18822;SDS011;9540;51.550;7.980;2023-04-24T05:33:22;15.18;;;9.00;;
18822;SDS011;9540;51.550;7.980;2023-04-24T05:35:49;14.18;;;9.25;;
18822;SDS011;9540;51.550;7.980;2023-04-24T05:38:16;14.90;;;9.98;;
18822;SDS011;9540;51.550;7.980;2023-04-24T05:40:49;15.60;;;9.55;;
18822;SDS011;9540;51.550;7.980;2023-04-24T05:43:16;16.65;;;9.55;;
18822;SDS011;9540;51.550;7.980;2023-04-24T05:45:46;14.57;;;9.45;;
18822;SDS011;9540;51.550;7.980;2023-04-24T05:48:13;14.82;;;8.82;;
18822;SDS011;9540;51.550;7.980;2023-04-24T05:50:41;15.10;;;9.40;;
18822;SDS011;9540;51.550;7.980;2023-04-24T05:53:08;17.23;;;10.70;;
18822;SDS011;9540;51.550;7.980;2023-04-24T05:55:35;11.20;;;8.48;;
18822;SDS011;9540;51.550;7.980;2023-04-24T05:58:04;14.55;;;9.45;;
18822;SDS011;9540;51.550;7.980;2023-04-24T06:00:32;12.07;;;8.98;;
18822;SDS011;9540;51.550;7.980;2023-04-24T06:02:59;10.90;;;8.23;;
18822;SDS011;9540;51.550;7.980;2023-04-24T06:05:28;13.15;;;9.07;;
18822;SDS011;9540;51.550;7.980;2023-04-24T06:07:56;14.85;;;8.88;;
18822;SDS011;9540;51.550;7.980;2023-04-24T06:10:23;14.30;;;8.20;;
18822;SDS011;9540;51.550;7.980;2023-04-24T06:12:50;12.27;;;8.23;;
18822;SDS011;9540;51.550;7.980;2023-04-24T06:15:19;13.63;;;8.82;;
18822;SDS011;9540;51.550;7.980;2023-04-24T06:17:46;10.95;;;7.13;;
18822;SDS011;9540;51.550;7.980;2023-04-24T06:20:13;11.02;;;7.82;;
18822;SDS011;9540;51.550;7.980;2023-04-24T06:22:40;12.68;;;7.72;;
18822;SDS011;9540;51.550;7.980;2023-04-24T06:25:07;12.10;;;8.07;;
18822;SDS011;9540;51.550;7.980;2023-04-24T06:27:35;9.88;;;7.38;;
18822;SDS011;9540;51.550;7.980;2023-04-24T06:30:02;12.85;;;6.38;;
18822;SDS011;9540;51.550;7.980;2023-04-24T06:32:31;9.65;;;6.43;;
18822;SDS011;9540;51.550;7.980;2023-04-24T06:34:58;7.13;;;6.18;;
18822;SDS011;9540;51.550;7.980;2023-04-24T06:37:25;7.25;;;5.80;;
18822;SDS011;9540;51.550;7.980;2023-04-24T06:39:55;8.00;;;6.50;;
18822;SDS011;9540;51.550;7.980;2023-04-24T06:42:22;7.32;;;6.05;;
18822;SDS011;9540;51.550;7.980;2023-04-24T06:44:49;12.38;;;7.03;;
18822;SDS011;9540;51.550;7.980;2023-04-24T06:47:17;7.22;;;6.15;;
18822;SDS011;9540;51.550;7.980;2023-04-24T06:49:45;8.45;;;6.47;;
18822;SDS011;9540;51.550;7.980;2023-04-24T06:52:12;6.75;;;5.85;;
18822;SDS011;9540;51.550;7.980;2023-04-24T06:54:41;7.18;;;6.22;;
18822;SDS011;9540;51.550;7.980;2023-04-24T06:57:08;7.43;;;5.68;;
18822;SDS011;9540;51.550;7.980;2023-04-24T06:59:35;6.50;;;5.60;;
18822;SDS011;9540;51.550;7.980;2023-04-24T07:02:02;8.02;;;5.53;;
18822;SDS011;9540;51.550;7.980;2023-04-24T07:04:30;8.45;;;6.00;;
18822;SDS011;9540;51.550;7.980;2023-04-24T07:06:58;7.30;;;5.10;;
18822;SDS011;9540;51.550;7.980;2023-04-24T07:09:26;6.75;;;4.85;;
18822;SDS011;9540;51.550;7.980;2023-04-24T07:11:53;5.40;;;4.65;;
18822;SDS011;9540;51.550;7.980;2023-04-24T07:14:21;7.80;;;5.22;;
18822;SDS011;9540;51.550;7.980;2023-04-24T07:16:48;10.35;;;5.15;;
18822;SDS011;9540;51.550;7.980;2023-04-24T07:19:15;5.25;;;3.25;;
18822;SDS011;9540;51.550;7.980;2023-04-24T07:21:42;3.40;;;3.10;;
18822;SDS011;9540;51.550;7.980;2023-04-24T07:24:11;5.38;;;3.60;;
18822;SDS011;9540;51.550;7.980;2023-04-24T07:26:38;3.88;;;3.58;;
18822;SDS011;9540;51.550;7.980;2023-04-24T07:29:05;3.70;;;2.88;;
18822;SDS011;9540;51.550;7.980;2023-04-24T07:31:33;4.28;;;3.58;;
18822;SDS011;9540;51.550;7.980;2023-04-24T07:34:00;4.72;;;3.47;;
18822;SDS011;9540;51.550;7.980;2023-04-24T07:36:27;3.70;;;3.33;;
18822;SDS011;9540;51.550;7.980;2023-04-24T07:38:54;3.50;;;3.20;;
18822;SDS011;9540;51.550;7.980;2023-04-24T07:41:23;3.83;;;3.42;;
18822;SDS011;9540;51.550;7.980;2023-04-24T07:43:52;3.58;;;3.25;;
18822;SDS011;9540;51.550;7.980;2023-04-24T07:46:20;5.38;;;4.07;;
18822;SDS011;9540;51.550;7.980;2023-04-24T07:48:48;3.83;;;3.08;;
18822;SDS011;9540;51.550;7.980;2023-04-24T07:51:15;4.20;;;3.63;;
18822;SDS011;9540;51.550;7.980;2023-04-24T07:53:42;5.75;;;3.78;;
18822;SDS011;9540;51.550;7.980;2023-04-24T07:56:10;3.50;;;3.20;;
18822;SDS011;9540;51.550;7.980;2023-04-24T07:58:38;2.58;;;2.38;;
18822;SDS011;9540;51.550;7.980;2023-04-24T08:01:06;9.30;;;4.20;;
18822;SDS011;9540;51.550;7.980;2023-04-24T08:03:33;4.72;;;3.15;;
18822;SDS011;9540;51.550;7.980;2023-04-24T08:06:00;3.63;;;3.22;;
18822;SDS011;9540;51.550;7.980;2023-04-24T08:08:27;5.22;;;2.42;;
18822;SDS011;9540;51.550;7.980;2023-04-24T08:10:55;3.97;;;2.65;;
18822;SDS011;9540;51.550;7.980;2023-04-24T08:13:22;2.72;;;2.55;;
18822;SDS011;9540;51.550;7.980;2023-04-24T08:15:50;4.28;;;2.30;;
18822;SDS011;9540;51.550;7.980;2023-04-24T08:18:17;3.80;;;1.92;;
18822;SDS011;9540;51.550;7.980;2023-04-24T08:20:44;2.38;;;2.03;;
18822;SDS011;9540;51.550;7.980;2023-04-24T08:23:12;2.20;;;1.95;;
18822;SDS011;9540;51.550;7.980;2023-04-24T08:25:39;2.67;;;2.47;;
18822;SDS011;9540;51.550;7.980;2023-04-24T08:28:07;2.00;;;1.90;;
18822;SDS011;9540;51.550;7.980;2023-04-24T08:30:35;2.30;;;1.80;;
18822;SDS011;9540;51.550;7.980;2023-04-24T08:33:04;2.03;;;1.75;;
18822;SDS011;9540;51.550;7.980;2023-04-24T08:35:32;2.30;;;2.10;;
18822;SDS011;9540;51.550;7.980;2023-04-24T08:37:59;2.22;;;2.05;;
18822;SDS011;9540;51.550;7.980;2023-04-24T08:40:27;8.02;;;1.58;;
18822;SDS011;9540;51.550;7.980;2023-04-24T08:42:56;1.25;;;1.25;;
18822;SDS011;9540;51.550;7.980;2023-04-24T08:45:23;4.53;;;1.27;;
18822;SDS011;9540;51.550;7.980;2023-04-24T08:47:51;1.38;;;1.10;;
18822;SDS011;9540;51.550;7.980;2023-04-24T08:50:21;0.80;;;0.80;;
18822;SDS011;9540;51.550;7.980;2023-04-24T08:52:49;0.70;;;0.70;;
18822;SDS011;9540;51.550;7.980;2023-04-24T08:55:18;1.08;;;1.05;;
18822;SDS011;9540;51.550;7.980;2023-04-24T08:57:49;0.80;;;0.80;;
18822;SDS011;9540;51.550;7.980;2023-04-24T09:00:19;0.98;;;0.98;;
18822;SDS011;9540;51.550;7.980;2023-04-24T09:02:47;2.15;;;1.00;;
18822;SDS011;9540;51.550;7.980;2023-04-24T09:05:16;0.90;;;0.90;;
18822;SDS011;9540;51.550;7.980;2023-04-24T09:07:47;0.90;;;0.90;;
18822;SDS011;9540;51.550;7.980;2023-04-24T09:10:19;1.10;;;1.10;;
18822;SDS011;9540;51.550;7.980;2023-04-24T09:12:47;1.13;;;1.02;;
18822;SDS011;9540;51.550;7.980;2023-04-24T09:15:15;1.00;;;1.00;;
18822;SDS011;9540;51.550;7.980;2023-04-24T09:17:43;0.70;;;0.70;;
18822;SDS011;9540;51.550;7.980;2023-04-24T09:20:10;2.15;;;1.20;;
18822;SDS011;9540;51.550;7.980;2023-04-24T09:22:37;1.52;;;0.77;;
18822;SDS011;9540;51.550;7.980;2023-04-24T09:25:07;0.80;;;0.80;;
18822;SDS011;9540;51.550;7.980;2023-04-24T09:27:41;3.22;;;0.70;;
18822;SDS011;9540;51.550;7.980;2023-04-24T09:30:10;0.82;;;0.82;;
18822;SDS011;9540;51.550;7.980;2023-04-24T09:32:37;2.05;;;0.60;;
18822;SDS011;9540;51.550;7.980;2023-04-24T09:35:05;0.80;;;0.80;;
18822;SDS011;9540;51.550;7.980;2023-04-24T09:37:37;0.80;;;0.80;;
18822;SDS011;9540;51.550;7.980;2023-04-24T09:40:15;0.90;;;0.90;;
18822;SDS011;9540;51.550;7.980;2023-04-24T09:42:43;0.82;;;0.82;;
18822;SDS011;9540;51.550;7.980;2023-04-24T09:45:12;0.70;;;0.70;;
18822;SDS011;9540;51.550;7.980;2023-04-24T09:47:39;0.70;;;0.70;;
18822;SDS011;9540;51.550;7.980;2023-04-24T09:50:11;0.60;;;0.60;;
18822;SDS011;9540;51.550;7.980;2023-04-24T09:52:39;0.60;;;0.60;;
18822;SDS011;9540;51.550;7.980;2023-04-24T09:55:11;0.73;;;0.73;;
18822;SDS011;9540;51.550;7.980;2023-04-24T09:57:49;0.90;;;0.90;;
18822;SDS011;9540;51.550;7.980;2023-04-24T10:00:24;0.57;;;0.57;;
18822;SDS011;9540;51.550;7.980;2023-04-24T10:02:55;0.70;;;0.70;;
18822;SDS011;9540;51.550;7.980;2023-04-24T10:05:24;3.60;;;0.80;;
18822;SDS011;9540;51.550;7.980;2023-04-24T10:07:56;0.90;;;0.90;;
18822;SDS011;9540;51.550;7.980;2023-04-24T10:10:25;1.05;;;1.05;;
18822;SDS011;9540;51.550;7.980;2023-04-24T10:12:52;0.77;;;0.77;;
18822;SDS011;9540;51.550;7.980;2023-04-24T10:15:20;0.93;;;0.93;;
18822;SDS011;9540;51.550;7.980;2023-04-24T10:17:48;1.55;;;1.45;;
18822;SDS011;9540;51.550;7.980;2023-04-24T10:20:18;1.00;;;1.00;;
18822;SDS011;9540;51.550;7.980;2023-04-24T10:22:47;1.20;;;1.10;;
18822;SDS011;9540;51.550;7.980;2023-04-24T10:25:16;3.53;;;1.73;;
18822;SDS011;9540;51.550;7.980;2023-04-24T10:27:47;3.78;;;1.67;;
18822;SDS011;9540;51.550;7.980;2023-04-24T10:30:15;1.60;;;1.48;;
18822;SDS011;9540;51.550;7.980;2023-04-24T10:32:43;1.83;;;1.55;;
18822;SDS011;9540;51.550;7.980;2023-04-24T10:35:11;2.97;;;2.13;;
18822;SDS011;9540;51.550;7.980;2023-04-24T10:37:40;2.95;;;1.90;;
18822;SDS011;9540;51.550;7.980;2023-04-24T10:40:10;2.40;;;2.20;;
18822;SDS011;9540;51.550;7.980;2023-04-24T10:42:42;2.20;;;2.08;;
18822;SDS011;9540;51.550;7.980;2023-04-24T10:45:17;2.58;;;2.38;;
18822;SDS011;9540;51.550;7.980;2023-04-24T10:47:53;2.60;;;2.40;;
18822;SDS011;9540;51.550;7.980;2023-04-24T10:50:23;2.45;;;2.10;;
18822;SDS011;9540;51.550;7.980;2023-04-24T10:53:05;2.35;;;2.20;;
18822;SDS011;9540;51.550;7.980;2023-04-24T10:55:44;4.30;;;2.10;;
18822;SDS011;9540;51.550;7.980;2023-04-24T10:58:13;1.73;;;1.63;;
18822;SDS011;9540;51.550;7.980;2023-04-24T11:00:43;2.13;;;1.95;;
18822;SDS011;9540;51.550;7.980;2023-04-24T11:03:24;3.95;;;2.25;;
18822;SDS011;9540;51.550;7.980;2023-04-24T11:05:55;2.95;;;2.20;;
18822;SDS011;9540;51.550;7.980;2023-04-24T11:08:24;3.40;;;2.42;;
18822;SDS011;9540;51.550;7.980;2023-04-24T11:10:57;6.05;;;2.70;;
18822;SDS011;9540;51.550;7.980;2023-04-24T11:16:35;5.32;;;3.65;;
18822;SDS011;9540;51.550;7.980;2023-04-24T11:19:10;3.67;;;3.38;;
18822;SDS011;9540;51.550;7.980;2023-04-24T11:21:47;5.30;;;3.50;;
18822;SDS011;9540;51.550;7.980;2023-04-24T11:24:24;4.28;;;3.22;;
18822;SDS011;9540;51.550;7.980;2023-04-24T11:26:52;4.63;;;3.22;;
18822;SDS011;9540;51.550;7.980;2023-04-24T11:29:20;6.32;;;3.88;;
18822;SDS011;9540;51.550;7.980;2023-04-24T11:31:49;5.05;;;3.83;;
18822;SDS011;9540;51.550;7.980;2023-04-24T11:34:16;4.90;;;4.30;;
18822;SDS011;9540;51.550;7.980;2023-04-24T11:36:47;8.73;;;5.68;;
18822;SDS011;9540;51.550;7.980;2023-04-24T11:39:15;7.22;;;5.22;;
18822;SDS011;9540;51.550;7.980;2023-04-24T11:41:42;11.52;;;6.25;;
18822;SDS011;9540;51.550;7.980;2023-04-24T11:44:09;9.18;;;5.78;;
18822;SDS011;9540;51.550;7.980;2023-04-24T11:46:36;9.07;;;5.70;;
18822;SDS011;9540;51.550;7.980;2023-04-24T11:49:06;11.10;;;6.20;;
18822;SDS011;9540;51.550;7.980;2023-04-24T11:51:33;9.35;;;5.68;;
18822;SDS011;9540;51.550;7.980;2023-04-24T11:54:01;11.55;;;6.03;;
18822;SDS011;9540;51.550;7.980;2023-04-24T11:56:28;9.32;;;6.15;;
18822;SDS011;9540;51.550;7.980;2023-04-24T11:58:55;12.55;;;7.38;;
18822;SDS011;9540;51.550;7.980;2023-04-24T12:01:22;8.98;;;6.75;;
18822;SDS011;9540;51.550;7.980;2023-04-24T12:03:50;17.40;;;8.23;;
18822;SDS011;9540;51.550;7.980;2023-04-24T12:06:26;13.35;;;7.05;;
18822;SDS011;9540;51.550;7.980;2023-04-24T12:08:53;16.42;;;8.35;;
18822;SDS011;9540;51.550;7.980;2023-04-24T12:11:25;18.75;;;7.57;;
18822;SDS011;9540;51.550;7.980;2023-04-24T12:13:53;14.77;;;8.85;;
18822;SDS011;9540;51.550;7.980;2023-04-24T12:16:20;15.10;;;9.63;;
18822;SDS011;9540;51.550;7.980;2023-04-24T12:18:47;14.88;;;9.52;;
18822;SDS011;9540;51.550;7.980;2023-04-24T12:21:14;20.08;;;10.48;;
18822;SDS011;9540;51.550;7.980;2023-04-24T12:23:46;21.60;;;10.25;;
18822;SDS011;9540;51.550;7.980;2023-04-24T12:26:16;21.48;;;11.00;;
18822;SDS011;9540;51.550;7.980;2023-04-24T12:28:46;20.60;;;9.55;;
18822;SDS011;9540;51.550;7.980;2023-04-24T12:31:14;20.75;;;9.90;;
18822;SDS011;9540;51.550;7.980;2023-04-24T12:33:42;26.02;;;10.13;;
18822;SDS011;9540;51.550;7.980;2023-04-24T12:36:10;21.95;;;10.77;;
18822;SDS011;9540;51.550;7.980;2023-04-24T12:38:38;20.00;;;10.50;;
18822;SDS011;9540;51.550;7.980;2023-04-24T12:41:11;20.33;;;10.70;;
18822;SDS011;9540;51.550;7.980;2023-04-24T12:43:39;28.73;;;10.63;;
18822;SDS011;9540;51.550;7.980;2023-04-24T12:46:17;26.42;;;12.07;;
18822;SDS011;9540;51.550;7.980;2023-04-24T12:48:47;34.67;;;13.65;;
18822;SDS011;9540;51.550;7.980;2023-04-24T12:51:15;28.58;;;13.65;;
18822;SDS011;9540;51.550;7.980;2023-04-24T12:53:42;37.00;;;14.05;;
18822;SDS011;9540;51.550;7.980;2023-04-24T12:56:11;37.95;;;15.45;;
18822;SDS011;9540;51.550;7.980;2023-04-24T12:58:38;27.52;;;13.98;;
18822;SDS011;9540;51.550;7.980;2023-04-24T13:01:05;34.05;;;17.05;;
18822;SDS011;9540;51.550;7.980;2023-04-24T13:03:32;30.02;;;15.32;;
18822;SDS011;9540;51.550;7.980;2023-04-24T13:05:59;32.78;;;16.10;;
18822;SDS011;9540;51.550;7.980;2023-04-24T13:08:26;30.83;;;13.95;;
18822;SDS011;9540;51.550;7.980;2023-04-24T13:10:53;29.65;;;12.68;;
18822;SDS011;9540;51.550;7.980;2023-04-24T13:13:22;33.25;;;12.32;;
18822;SDS011;9540;51.550;7.980;2023-04-24T13:15:49;27.90;;;12.02;;
18822;SDS011;9540;51.550;7.980;2023-04-24T13:18:16;25.52;;;11.90;;
18822;SDS011;9540;51.550;7.980;2023-04-24T13:20:43;18.23;;;10.70;;
18822;SDS011;9540;51.550;7.980;2023-04-24T13:23:12;15.98;;;9.48;;
18822;SDS011;9540;51.550;7.980;2023-04-24T13:25:39;18.73;;;9.38;;
18822;SDS011;9540;51.550;7.980;2023-04-24T13:28:07;22.92;;;8.07;;
18822;SDS011;9540;51.550;7.980;2023-04-24T13:30:35;12.82;;;7.68;;
18822;SDS011;9540;51.550;7.980;2023-04-24T13:33:03;15.82;;;8.20;;
18822;SDS011;9540;51.550;7.980;2023-04-24T13:35:30;13.48;;;7.00;;
18822;SDS011;9540;51.550;7.980;2023-04-24T13:37:57;12.40;;;7.13;;
18822;SDS011;9540;51.550;7.980;2023-04-24T13:40:26;12.40;;;7.07;;
18822;SDS011;9540;51.550;7.980;2023-04-24T13:42:53;15.95;;;7.78;;
18822;SDS011;9540;51.550;7.980;2023-04-24T13:45:21;11.52;;;7.13;;
18822;SDS011;9540;51.550;7.980;2023-04-24T13:47:49;17.30;;;6.78;;
18822;SDS011;9540;51.550;7.980;2023-04-24T13:50:16;15.50;;;6.95;;
18822;SDS011;9540;51.550;7.980;2023-04-24T13:52:43;13.00;;;6.90;;
18822;SDS011;9540;51.550;7.980;2023-04-24T13:55:10;12.30;;;7.40;;
18822;SDS011;9540;51.550;7.980;2023-04-24T13:57:38;13.15;;;6.60;;
18822;SDS011;9540;51.550;7.980;2023-04-24T14:00:06;10.45;;;6.28;;
18822;SDS011;9540;51.550;7.980;2023-04-24T14:02:35;9.32;;;6.05;;
18822;SDS011;9540;51.550;7.980;2023-04-24T14:05:04;13.60;;;7.63;;
18822;SDS011;9540;51.550;7.980;2023-04-24T14:07:32;9.93;;;6.07;;
18822;SDS011;9540;51.550;7.980;2023-04-24T14:09:59;9.68;;;5.72;;
18822;SDS011;9540;51.550;7.980;2023-04-24T14:12:26;9.13;;;5.20;;
18822;SDS011;9540;51.550;7.980;2023-04-24T14:14:54;8.90;;;4.95;;
18822;SDS011;9540;51.550;7.980;2023-04-24T14:17:21;8.63;;;5.53;;
18822;SDS011;9540;51.550;7.980;2023-04-24T14:19:48;8.73;;;5.57;;
18822;SDS011;9540;51.550;7.980;2023-04-24T14:22:16;8.80;;;5.28;;
18822;SDS011;9540;51.550;7.980;2023-04-24T14:24:44;12.82;;;6.45;;
18822;SDS011;9540;51.550;7.980;2023-04-24T14:27:11;14.07;;;6.28;;
18822;SDS011;9540;51.550;7.980;2023-04-24T14:29:38;10.15;;;5.72;;
18822;SDS011;9540;51.550;7.980;2023-04-24T14:32:06;14.38;;;6.03;;
18822;SDS011;9540;51.550;7.980;2023-04-24T14:34:34;10.25;;;6.10;;
18822;SDS011;9540;51.550;7.980;2023-04-24T14:37:01;9.20;;;5.25;;
18822;SDS011;9540;51.550;7.980;2023-04-24T14:39:29;7.68;;;5.85;;
18822;SDS011;9540;51.550;7.980;2023-04-24T14:41:56;13.25;;;6.97;;
18822;SDS011;9540;51.550;7.980;2023-04-24T14:44:24;7.63;;;4.93;;
18822;SDS011;9540;51.550;7.980;2023-04-24T14:46:51;8.32;;;4.57;;
18822;SDS011;9540;51.550;7.980;2023-04-24T14:49:18;10.07;;;5.72;;
18822;SDS011;9540;51.550;7.980;2023-04-24T14:51:45;5.53;;;4.55;;
18822;SDS011;9540;51.550;7.980;2023-04-24T14:54:12;8.32;;;3.78;;
18822;SDS011;9540;51.550;7.980;2023-04-24T14:56:41;10.07;;;4.25;;
18822;SDS011;9540;51.550;7.980;2023-04-24T14:59:09;8.85;;;3.63;;
18822;SDS011;9540;51.550;7.980;2023-04-24T15:01:37;8.40;;;3.75;;
18822;SDS011;9540;51.550;7.980;2023-04-24T15:04:04;7.47;;;3.70;;